Time;durP1;ratioP1;P1;durP2;ratioP2;P2;SDS_P1;SDS_P2;PMS_P1;PMS_P2;Temp;Humidity;BMP_temperature;BMP_pressure;BME280_temperature;BME280_humidity;BME280_pressure;Samples;Min_cycle;Max_cycle;Signal;HPM_P1;HPM_P2
2023/01/15 00:00:45;;;;;;;8.95;3.67;;;;;;;;;;6198339;28;20104;-58
2023/01/15 00:04:06;;;;;;;8.15;2.72;;;;;;;;;;6199453;28;20054;-59
2023/01/15 00:07:07;;;;;;;10.75;4.30;;;;;;;;;;6198674;28;20052;-57
2023/01/15 00:10:08;;;;;;;9.00;3.40;;;;;;;;;;6197999;28;20053;-58
2023/01/15 00:13:09;;;;;;;9.43;3.83;;;;;;;;;;6199169;28;20057;-59
2023/01/15 00:16:13;;;;;;;10.52;3.55;;;;;;;;;;6198244;28;20137;-58
2023/01/15 00:19:14;;;;;;;7.57;2.75;;;;;;;;;;6198505;28;20053;-60
2023/01/15 00:22:15;;;;;;;8.05;2.80;;;;;;;;;;6199098;28;20149;-57
2023/01/15 00:28:35;;;;;;;9.02;4.47;;;;;;;;;;6198494;28;20050;-59
2023/01/15 00:31:35;;;;;;;10.13;3.88;;;;;;;;;;6201761;28;20674;-56
2023/01/15 00:34:36;;;;;;;10.45;4.43;;;;;;;;;;6205013;28;20103;-58
2023/01/15 00:37:37;;;;;;;9.13;3.92;;;;;;;;;;6200607;28;20046;-59
2023/01/15 00:40:37;;;;;;;11.60;4.00;;;;;;;;;;6201669;28;20061;-57
2023/01/15 00:43:38;;;;;;;8.63;3.50;;;;;;;;;;6204559;28;20124;-58
2023/01/15 00:46:38;;;;;;;8.68;3.20;;;;;;;;;;6202983;28;20061;-57
2023/01/15 00:49:44;;;;;;;7.00;3.45;;;;;;;;;;6203427;28;20428;-58
2023/01/15 00:52:44;;;;;;;11.55;3.78;;;;;;;;;;6201854;28;20116;-57
2023/01/15 00:55:45;;;;;;;6.75;3.22;;;;;;;;;;6202200;28;20463;-58
2023/01/15 00:58:46;;;;;;;6.05;3.22;;;;;;;;;;6203421;28;20061;-62
2023/01/15 01:01:47;;;;;;;8.85;3.63;;;;;;;;;;6204091;28;20081;-62
2023/01/15 01:04:47;;;;;;;7.50;3.00;;;;;;;;;;6200416;28;20493;-61
2023/01/15 01:07:48;;;;;;;10.35;3.22;;;;;;;;;;6198002;28;20056;-60
2023/01/15 01:10:49;;;;;;;6.55;2.97;;;;;;;;;;6200112;28;20458;-61
2023/01/15 01:13:49;;;;;;;5.78;3.33;;;;;;;;;;6201370;28;20516;-60
2023/01/15 01:16:50;;;;;;;7.63;3.00;;;;;;;;;;6196658;28;20054;-62
2023/01/15 01:19:51;;;;;;;6.28;2.60;;;;;;;;;;6199568;28;20420;-61
2023/01/15 01:22:51;;;;;;;7.53;2.88;;;;;;;;;;6200359;28;20125;-61
2023/01/15 01:25:52;;;;;;;6.78;2.90;;;;;;;;;;6202272;28;20057;-62
2023/01/15 01:28:56;;;;;;;6.30;3.20;;;;;;;;;;6211071;28;20465;-60
2023/01/15 01:31:56;;;;;;;6.32;3.63;;;;;;;;;;6207474;28;20051;-60
2023/01/15 01:34:57;;;;;;;5.85;2.97;;;;;;;;;;6204122;28;20061;-53
2023/01/15 01:37:57;;;;;;;9.38;3.83;;;;;;;;;;6211879;28;20085;-60
2023/01/15 01:40:58;;;;;;;6.07;2.70;;;;;;;;;;6211627;28;20062;-62
2023/01/15 01:44:00;;;;;;;6.57;2.92;;;;;;;;;;6205471;28;20053;-61
2023/01/15 01:47:07;;;;;;;9.70;2.85;;;;;;;;;;6203836;28;20046;-60
2023/01/15 01:50:10;;;;;;;5.75;2.78;;;;;;;;;;6202446;28;20046;-60
2023/01/15 01:53:19;;;;;;;7.85;2.95;;;;;;;;;;6201688;28;20503;-60
2023/01/15 01:56:22;;;;;;;6.15;2.80;;;;;;;;;;6200184;28;20088;-61
2023/01/15 01:59:24;;;;;;;7.80;3.47;;;;;;;;;;6206509;28;20505;-62
2023/01/15 02:02:25;;;;;;;6.25;3.20;;;;;;;;;;6201429;28;20074;-62
2023/01/15 02:05:29;;;;;;;8.10;3.20;;;;;;;;;;6199825;28;20049;-61
2023/01/15 02:08:31;;;;;;;6.93;2.97;;;;;;;;;;6199415;28;20565;-60
2023/01/15 02:11:33;;;;;;;6.80;2.83;;;;;;;;;;6201664;28;20060;-60
2023/01/15 02:14:41;;;;;;;;;;;;;;;;;;6200461;28;20058;-61
2023/01/15 02:17:47;;;;;;;5.53;2.70;;;;;;;;;;6199736;28;20284;-60
2023/01/15 02:21:00;;;;;;;6.30;2.90;;;;;;;;;;6201941;28;20050;-61
2023/01/15 02:24:28;;;;;;;6.18;3.20;;;;;;;;;;6201059;28;20058;-59
2023/01/15 02:27:30;;;;;;;5.00;2.70;;;;;;;;;;6191506;28;20049;-60
2023/01/15 02:30:37;;;;;;;7.35;3.53;;;;;;;;;;6199638;28;20092;-61
2023/01/15 02:33:43;;;;;;;8.23;2.90;;;;;;;;;;6202850;28;20054;-61
2023/01/15 02:36:49;;;;;;;4.90;2.60;;;;;;;;;;6202373;28;20398;-60
2023/01/15 02:39:51;;;;;;;6.22;2.72;;;;;;;;;;6203331;28;20050;-61
2023/01/15 02:42:53;;;;;;;5.65;3.10;;;;;;;;;;6208778;28;20070;-60
2023/01/15 02:45:57;;;;;;;;;;;;;;;;;;6202198;28;20509;-61
2023/01/15 02:48:59;;;;;;;7.75;3.00;;;;;;;;;;6197492;28;20008;-61
2023/01/15 02:52:03;;;;;;;7.68;3.20;;;;;;;;;;6198402;28;20057;-61
2023/01/15 02:55:16;;;;;;;9.10;3.53;;;;;;;;;;6206906;28;20042;-60
2023/01/15 02:58:22;;;;;;;6.88;2.80;;;;;;;;;;6199939;28;20477;-60
2023/01/15 03:01:27;;;;;;;6.70;3.15;;;;;;;;;;6196757;28;20054;-61
2023/01/15 03:04:33;;;;;;;7.50;2.90;;;;;;;;;;6197916;28;20054;-61
2023/01/15 03:07:36;;;;;;;5.63;2.80;;;;;;;;;;6198761;28;20058;-62
2023/01/15 03:10:49;;;;;;;5.97;3.10;;;;;;;;;;6201582;28;20052;-60
2023/01/15 03:14:13;;;;;;;7.13;3.05;;;;;;;;;;6215261;28;20053;-61
2023/01/15 03:17:32;;;;;;;6.22;2.90;;;;;;;;;;6203136;28;20083;-61
2023/01/15 03:20:36;;;;;;;6.03;2.38;;;;;;;;;;6215859;28;20042;-60
2023/01/15 03:23:42;;;;;;;6.78;2.60;;;;;;;;;;6208615;28;20070;-62
2023/01/15 03:26:42;;;;;;;6.47;3.10;;;;;;;;;;6195750;28;20397;-60
2023/01/15 03:29:51;;;;;;;6.13;2.78;;;;;;;;;;6197725;28;20042;-61
2023/01/15 03:32:53;;;;;;;4.88;2.58;;;;;;;;;;6199480;28;20095;-60
2023/01/15 03:35:58;;;;;;;6.65;2.67;;;;;;;;;;6201542;28;20124;-60
2023/01/15 03:38:59;;;;;;;5.20;2.55;;;;;;;;;;6199337;28;20072;-60
2023/01/15 03:42:06;;;;;;;7.45;2.75;;;;;;;;;;6198672;28;20073;-60
2023/01/15 03:45:16;;;;;;;4.65;2.10;;;;;;;;;;6198698;28;20096;-60
2023/01/15 03:48:37;;;;;;;7.07;2.40;;;;;;;;;;6198021;28;20047;-60
2023/01/15 03:51:59;;;;;;;5.63;2.53;;;;;;;;;;6198338;28;20136;-61
2023/01/15 03:55:13;;;;;;;6.55;2.63;;;;;;;;;;6210008;28;20489;-60
2023/01/15 03:58:14;;;;;;;6.22;2.47;;;;;;;;;;6201082;28;20045;-60
2023/01/15 04:01:20;;;;;;;7.03;2.85;;;;;;;;;;6205633;28;20060;-61
2023/01/15 04:04:21;;;;;;;5.55;2.45;;;;;;;;;;6213606;28;20054;-61
2023/01/15 04:07:23;;;;;;;7.47;2.60;;;;;;;;;;6198568;28;20489;-61
2023/01/15 04:10:24;;;;;;;4.95;2.33;;;;;;;;;;6200729;28;20049;-61
2023/01/15 04:13:25;;;;;;;5.18;2.25;;;;;;;;;;6199179;28;20042;-60
2023/01/15 04:16:28;;;;;;;8.30;2.58;;;;;;;;;;6200296;28;20517;-61
2023/01/15 04:19:29;;;;;;;6.38;2.30;;;;;;;;;;6206492;28;20068;-60
2023/01/15 04:22:30;;;;;;;6.65;2.70;;;;;;;;;;6214773;28;20054;-58
2023/01/15 04:25:31;;;;;;;7.97;2.50;;;;;;;;;;6198877;28;20412;-62
2023/01/15 04:28:32;;;;;;;5.68;2.47;;;;;;;;;;6198628;28;20295;-62
2023/01/15 04:31:34;;;;;;;4.45;2.30;;;;;;;;;;6205422;28;20056;-61
2023/01/15 04:34:35;;;;;;;5.35;2.53;;;;;;;;;;6205815;28;20057;-59
2023/01/15 04:37:36;;;;;;;5.50;2.40;;;;;;;;;;6197416;28;20417;-61
2023/01/15 04:44:07;;;;;;;7.60;2.60;;;;;;;;;;6199291;28;20092;-63
2023/01/15 04:47:08;;;;;;;6.00;2.40;;;;;;;;;;6199396;28;20050;-60
2023/01/15 04:50:10;;;;;;;5.47;2.15;;;;;;;;;;6193619;28;20774;-60
2023/01/15 04:53:10;;;;;;;5.20;2.27;;;;;;;;;;6197564;28;20501;-59
2023/01/15 04:56:11;;;;;;;6.60;2.83;;;;;;;;;;6199952;28;20042;-60
2023/01/15 04:59:12;;;;;;;5.07;2.53;;;;;;;;;;6195890;28;20050;-59
2023/01/15 05:02:13;;;;;;;4.53;2.03;;;;;;;;;;6199273;28;20057;-60
2023/01/15 05:05:14;;;;;;;6.65;2.33;;;;;;;;;;6197208;28;22118;-62
2023/01/15 05:08:15;;;;;;;4.90;2.08;;;;;;;;;;6200393;28;20046;-59
2023/01/15 05:11:16;;;;;;;5.10;2.30;;;;;;;;;;6210760;28;20081;-60
2023/01/15 05:14:16;;;;;;;5.15;2.10;;;;;;;;;;6201052;28;20058;-60
2023/01/15 05:17:17;;;;;;;4.57;2.10;;;;;;;;;;6198873;28;20124;-61
2023/01/15 05:20:18;;;;;;;6.10;2.60;;;;;;;;;;6197661;28;20053;-60
2023/01/15 05:23:18;;;;;;;6.30;2.75;;;;;;;;;;6202962;28;20126;-59
2023/01/15 05:26:20;;;;;;;4.57;2.05;;;;;;;;;;6206066;28;20133;-60
2023/01/15 05:29:20;;;;;;;6.32;2.90;;;;;;;;;;6215357;28;20124;-59
2023/01/15 05:32:21;;;;;;;6.88;2.38;;;;;;;;;;6206038;28;21152;-61
2023/01/15 05:35:21;;;;;;;5.60;2.35;;;;;;;;;;6216988;28;20050;-61
2023/01/15 05:38:22;;;;;;;6.38;2.70;;;;;;;;;;6199089;28;20061;-61
2023/01/15 05:44:42;;;;;;;7.30;2.70;;;;;;;;;;6213597;28;20046;-62
2023/01/15 05:47:42;;;;;;;6.43;2.60;;;;;;;;;;6204844;28;20049;-60
2023/01/15 05:50:43;;;;;;;5.40;2.53;;;;;;;;;;6202512;28;20124;-60
2023/01/15 05:53:44;;;;;;;6.32;2.45;;;;;;;;;;6198063;28;20042;-60
2023/01/15 05:56:45;;;;;;;4.97;2.25;;;;;;;;;;6202760;28;20836;-60
2023/01/15 05:59:46;;;;;;;6.78;2.47;;;;;;;;;;6199095;28;20054;-61
2023/01/15 06:02:50;;;;;;;10.82;4.32;;;;;;;;;;6200648;28;20137;-60
2023/01/15 06:05:54;;;;;;;6.03;2.22;;;;;;;;;;6199461;28;20042;-61
2023/01/15 06:08:55;;;;;;;6.90;2.65;;;;;;;;;;6207787;28;20087;-61
2023/01/15 06:11:56;;;;;;;5.43;2.25;;;;;;;;;;6216942;28;20043;-61
2023/01/15 06:14:56;;;;;;;6.25;2.70;;;;;;;;;;6201363;28;20065;-61
2023/01/15 06:17:57;;;;;;;5.97;2.25;;;;;;;;;;6201441;28;20050;-61
2023/01/15 06:21:05;;;;;;;5.00;2.25;;;;;;;;;;6201663;28;20046;-62
2023/01/15 06:24:06;;;;;;;5.55;2.15;;;;;;;;;;6201541;28;20092;-60
2023/01/15 06:27:07;;;;;;;5.90;2.88;;;;;;;;;;6202538;28;20048;-61
2023/01/15 06:30:08;;;;;;;8.55;2.75;;;;;;;;;;6209138;28;20046;-60
2023/01/15 06:33:09;;;;;;;4.90;2.17;;;;;;;;;;6200073;28;20050;-61
2023/01/15 06:36:12;;;;;;;6.25;2.53;;;;;;;;;;6202472;28;20054;-63
2023/01/15 06:39:13;;;;;;;5.47;2.40;;;;;;;;;;6207920;28;20053;-62
2023/01/15 06:48:57;;;;;;;5.57;2.85;;;;;;;;;;6200329;28;20077;-60
2023/01/15 06:51:58;;;;;;;5.03;2.65;;;;;;;;;;6206401;28;20631;-61
2023/01/15 06:54:58;;;;;;;7.35;2.80;;;;;;;;;;6197291;28;20042;-60
2023/01/15 06:58:02;;;;;;;7.28;2.55;;;;;;;;;;6209438;28;20457;-60
2023/01/15 07:01:07;;;;;;;5.57;2.58;;;;;;;;;;6200414;28;20133;-62
2023/01/15 07:04:08;;;;;;;7.30;2.63;;;;;;;;;;6199550;28;20042;-61
2023/01/15 07:07:08;;;;;;;7.95;2.90;;;;;;;;;;6195388;28;20052;-61
2023/01/15 07:10:10;;;;;;;10.63;3.97;;;;;;;;;;6201504;28;20050;-60
2023/01/15 07:13:10;;;;;;;10.40;3.85;;;;;;;;;;6219576;28;20085;-60
2023/01/15 07:16:26;;;;;;;12.00;4.68;;;;;;;;;;6206297;28;20064;-61
2023/01/15 07:19:27;;;;;;;8.05;3.30;;;;;;;;;;6201071;28;20085;-61
2023/01/15 07:22:28;;;;;;;12.75;4.93;;;;;;;;;;6194291;28;20042;-64
2023/01/15 07:25:28;;;;;;;8.90;3.38;;;;;;;;;;6212250;28;20058;-64
2023/01/15 07:28:29;;;;;;;6.90;2.72;;;;;;;;;;6218180;28;20100;-64
2023/01/15 07:31:30;;;;;;;6.22;2.70;;;;;;;;;;6218254;28;20049;-62
2023/01/15 07:34:31;;;;;;;7.55;2.95;;;;;;;;;;6218618;28;20056;-64
2023/01/15 07:37:31;;;;;;;5.95;2.47;;;;;;;;;;6217947;28;20101;-61
2023/01/15 07:40:32;;;;;;;4.90;2.13;;;;;;;;;;6218652;28;20129;-64
2023/01/15 07:50:17;;;;;;;6.20;2.65;;;;;;;;;;6217583;28;20132;-64
2023/01/15 07:53:17;;;;;;;5.22;2.60;;;;;;;;;;6215566;28;20676;-64
2023/01/15 07:56:18;;;;;;;8.02;2.90;;;;;;;;;;6205009;28;20050;-64
2023/01/15 07:59:19;;;;;;;5.85;2.53;;;;;;;;;;6217636;28;20050;-64
2023/01/15 08:02:19;;;;;;;5.45;2.65;;;;;;;;;;6218370;28;20049;-63
2023/01/15 08:05:20;;;;;;;7.45;2.90;;;;;;;;;;6212926;28;20144;-64
2023/01/15 08:08:20;;;;;;;5.35;2.50;;;;;;;;;;6217684;28;20089;-62
2023/01/15 08:17:59;;;;;;;7.13;2.85;;;;;;;;;;6214550;28;20056;-63
2023/01/15 08:21:00;;;;;;;5.70;2.97;;;;;;;;;;6212159;28;20046;-64
2023/01/15 08:24:00;;;;;;;6.63;2.45;;;;;;;;;;6213954;28;20050;-63
2023/01/15 08:27:01;;;;;;;4.55;2.03;;;;;;;;;;6217749;28;20042;-63
2023/01/15 08:30:04;;;;;;;5.38;2.00;;;;;;;;;;6212209;28;20054;-61
2023/01/15 08:33:04;;;;;;;10.77;3.13;;;;;;;;;;6209525;28;20050;-63
2023/01/15 08:36:05;;;;;;;6.30;2.35;;;;;;;;;;6210528;28;20049;-64
2023/01/15 08:39:05;;;;;;;6.03;2.20;;;;;;;;;;6216494;28;20061;-65
2023/01/15 08:42:07;;;;;;;5.55;2.47;;;;;;;;;;6216197;28;20064;-63
2023/01/15 08:45:08;;;;;;;6.18;2.60;;;;;;;;;;6215850;28;20512;-64
2023/01/15 08:48:09;;;;;;;7.15;2.40;;;;;;;;;;6217822;28;20076;-64
2023/01/15 08:51:11;;;;;;;7.00;2.47;;;;;;;;;;6218163;28;20128;-62
2023/01/15 08:54:12;;;;;;;6.95;2.35;;;;;;;;;;6201763;28;20359;-62
2023/01/15 08:57:12;;;;;;;7.53;2.53;;;;;;;;;;6203745;28;20049;-60
2023/01/15 09:00:13;;;;;;;5.50;2.42;;;;;;;;;;6212113;28;20045;-61
2023/01/15 09:03:14;;;;;;;7.53;2.28;;;;;;;;;;6211690;28;20485;-61
2023/01/15 09:06:15;;;;;;;6.45;2.50;;;;;;;;;;6211949;28;20057;-62
2023/01/15 09:09:17;;;;;;;8.48;2.75;;;;;;;;;;6220826;28;20042;-63
2023/01/15 09:12:18;;;;;;;7.20;3.08;;;;;;;;;;6220779;28;20046;-64
2023/01/15 09:15:19;;;;;;;6.18;2.00;;;;;;;;;;6217287;28;20052;-63
2023/01/15 09:18:19;;;;;;;5.53;2.10;;;;;;;;;;6213200;28;20038;-63
2023/01/15 09:21:20;;;;;;;6.43;2.50;;;;;;;;;;6220402;28;20052;-63
2023/01/15 09:24:20;;;;;;;4.45;2.20;;;;;;;;;;6218011;28;20104;-62
2023/01/15 09:27:21;;;;;;;5.97;2.70;;;;;;;;;;6221202;28;20477;-63
2023/01/15 09:30:22;;;;;;;6.95;3.20;;;;;;;;;;6220052;28;20104;-62
2023/01/15 09:33:22;;;;;;;6.10;2.85;;;;;;;;;;6220998;28;20053;-61
2023/01/15 09:36:33;;;;;;;7.72;2.30;;;;;;;;;;6220977;28;20042;-63
2023/01/15 09:39:33;;;;;;;7.80;2.72;;;;;;;;;;6218763;28;20148;-60
2023/01/15 09:43:03;;;;;;;7.55;2.75;;;;;;;;;;6221044;28;20133;-61
2023/01/15 09:46:19;;;;;;;8.80;3.50;;;;;;;;;;6214190;28;20144;-61
2023/01/15 09:49:50;;;;;;;7.95;3.20;;;;;;;;;;6220367;28;20060;-64
2023/01/15 09:53:25;;;;;;;8.30;3.22;;;;;;;;;;6210000;28;20436;-61
2023/01/15 09:56:28;;;;;;;5.93;2.35;;;;;;;;;;6220906;28;20542;-62
2023/01/15 09:59:35;;;;;;;8.40;3.47;;;;;;;;;;6220215;28;20038;-58
2023/01/15 10:02:45;;;;;;;6.38;2.33;;;;;;;;;;6219183;28;20052;-57
2023/01/15 10:05:58;;;;;;;12.40;5.05;;;;;;;;;;6220659;28;20054;-58
2023/01/15 10:09:21;;;;;;;6.90;3.53;;;;;;;;;;6208677;28;20060;-55
2023/01/15 10:12:35;;;;;;;5.35;2.22;;;;;;;;;;6205087;28;20073;-69
2023/01/15 10:15:40;;;;;;;7.78;2.60;;;;;;;;;;6214406;28;20057;-64
2023/01/15 10:18:42;;;;;;;5.97;2.53;;;;;;;;;;6218892;28;20096;-59
2023/01/15 10:22:06;;;;;;;8.63;2.70;;;;;;;;;;6212782;28;20109;-60
2023/01/15 10:25:14;;;;;;;7.32;2.95;;;;;;;;;;6197105;28;20051;-62
2023/01/15 10:28:51;;;;;;;5.32;3.00;;;;;;;;;;6198342;28;20044;-56
2023/01/15 10:32:29;;;;;;;7.50;2.50;;;;;;;;;;6205241;28;20081;-62
2023/01/15 10:35:35;;;;;;;7.40;3.10;;;;;;;;;;6214105;28;20065;-62
2023/01/15 10:38:52;;;;;;;5.80;2.20;;;;;;;;;;6210545;28;20137;-62
2023/01/15 10:42:41;;;;;;;7.88;2.67;;;;;;;;;;6194565;28;20708;-67
2023/01/15 10:45:52;;;;;;;8.57;2.50;;;;;;;;;;6174520;28;20088;-62
2023/01/15 10:48:53;;;;;;;7.05;2.30;;;;;;;;;;6219715;28;20052;-60
2023/01/15 10:52:02;;;;;;;6.80;2.80;;;;;;;;;;6218771;28;20054;-56
2023/01/15 10:55:19;;;;;;;9.18;3.67;;;;;;;;;;6218935;28;20052;-58
2023/01/15 10:58:53;;;;;;;9.75;3.20;;;;;;;;;;6218068;28;20057;-58
2023/01/15 11:01:58;;;;;;;8.65;3.95;;;;;;;;;;6210071;28;20103;-62
2023/01/15 11:05:00;;;;;;;8.20;3.38;;;;;;;;;;6213854;28;20440;-62
2023/01/15 11:08:05;;;;;;;6.95;3.70;;;;;;;;;;6208050;28;20053;-67
2023/01/15 11:21:39;;;;;;;5.78;2.58;;;;;;;;;;6207080;28;20046;-61
2023/01/15 11:24:51;;;;;;;5.10;2.30;;;;;;;;;;6207773;28;20054;-61
2023/01/15 11:27:52;;;;;;;6.15;3.00;;;;;;;;;;6208710;28;20091;-60
2023/01/15 11:30:54;;;;;;;6.13;3.28;;;;;;;;;;6205405;28;20501;-57
2023/01/15 11:34:03;;;;;;;7.30;4.78;;;;;;;;;;6205249;28;20504;-61
2023/01/15 11:37:04;;;;;;;8.00;3.60;;;;;;;;;;6188827;28;20073;-55
2023/01/15 11:40:16;;;;;;;7.60;4.45;;;;;;;;;;6203406;28;20127;-58
2023/01/15 11:53:50;;;;;;;12.10;5.32;;;;;;;;;;6206854;28;20076;-60
2023/01/15 11:56:51;;;;;;;10.60;4.25;;;;;;;;;;6206233;28;20061;-60
2023/01/15 11:59:52;;;;;;;6.82;3.35;;;;;;;;;;6203293;28;20070;-60
2023/01/15 12:02:59;;;;;;;10.35;5.32;;;;;;;;;;6206331;28;20057;-60
2023/01/15 12:06:07;;;;;;;8.93;4.47;;;;;;;;;;6207405;28;20060;-60
2023/01/15 12:09:21;;;;;;;12.40;7.97;;;;;;;;;;6203171;28;20615;-58
2023/01/15 12:12:40;;;;;;;8.13;4.25;;;;;;;;;;6207665;28;20038;-58
2023/01/15 12:15:50;;;;;;;7.50;3.25;;;;;;;;;;6208277;28;20072;-58
2023/01/15 12:19:02;;;;;;;8.10;3.40;;;;;;;;;;6203423;28;20050;-57
2023/01/15 12:22:16;;;;;;;;;;;;;;;;;;6205578;28;20056;-60
2023/01/15 12:25:55;;;;;;;7.70;3.20;;;;;;;;;;6207536;28;19925;-62
2023/01/15 12:29:03;;;;;;;9.70;4.00;;;;;;;;;;6207817;28;20053;-54
2023/01/15 12:32:12;;;;;;;9.27;5.28;;;;;;;;;;6211376;28;20515;-61
2023/01/15 12:35:17;;;;;;;8.60;4.07;;;;;;;;;;6211682;28;20085;-57
2023/01/15 12:38:50;;;;;;;11.18;5.45;;;;;;;;;;6210584;28;20168;-58
2023/01/15 12:45:27;;;;;;;10.93;5.85;;;;;;;;;;6210280;28;19929;-57
2023/01/15 12:48:53;;;;;;;10.10;4.88;;;;;;;;;;6207882;28;20049;-59
2023/01/15 12:52:03;;;;;;;12.00;4.88;;;;;;;;;;6211132;28;20065;-60
2023/01/15 12:55:28;;;;;;;26.00;9.07;;;;;;;;;;6210923;28;20111;-60
2023/01/15 12:58:50;;;;;;;12.70;5.07;;;;;;;;;;6211824;28;20049;-57
2023/01/15 13:02:41;;;;;;;14.27;5.60;;;;;;;;;;6211548;28;20050;-58
2023/01/15 13:05:52;;;;;;;11.88;5.28;;;;;;;;;;6178602;28;20306;-57
2023/01/15 13:08:55;;;;;;;8.05;3.78;;;;;;;;;;6208171;28;20884;-59
2023/01/15 13:11:56;;;;;;;9.40;4.15;;;;;;;;;;6211586;28;20056;-60
2023/01/15 13:14:57;;;;;;;9.80;4.13;;;;;;;;;;6210292;28;20054;-60
2023/01/15 13:18:16;;;;;;;7.72;3.80;;;;;;;;;;6209379;28;20416;-60
2023/01/15 13:21:19;;;;;;;8.73;3.83;;;;;;;;;;6204526;28;20912;-60
2023/01/15 13:24:58;;;;;;;12.43;5.35;;;;;;;;;;6209979;28;20123;-56
2023/01/15 13:28:23;;;;;;;7.45;3.70;;;;;;;;;;6209701;28;20261;-58
2023/01/15 13:31:23;;;;;;;9.88;4.45;;;;;;;;;;6205887;28;21574;-58
2023/01/15 13:34:33;;;;;;;6.75;3.80;;;;;;;;;;6209412;28;20061;-59
2023/01/15 13:37:40;;;;;;;8.48;3.75;;;;;;;;;;6208457;28;20054;-61
2023/01/15 13:40:49;;;;;;;7.20;3.40;;;;;;;;;;6197967;28;20062;-59
2023/01/15 13:43:54;;;;;;;8.70;3.90;;;;;;;;;;6200064;28;20103;-59
2023/01/15 13:47:03;;;;;;;8.57;3.63;;;;;;;;;;6201395;28;20810;-58
2023/01/15 13:50:14;;;;;;;8.95;3.95;;;;;;;;;;6198440;28;20042;-57
2023/01/15 13:53:44;;;;;;;11.00;4.15;;;;;;;;;;6200305;28;20500;-55
2023/01/15 13:56:45;;;;;;;12.32;5.60;;;;;;;;;;6199086;28;20904;-57
2023/01/15 13:59:46;;;;;;;7.85;3.78;;;;;;;;;;6197605;28;20056;-59
2023/01/15 14:02:53;;;;;;;8.35;4.18;;;;;;;;;;6199494;28;20127;-60
2023/01/15 14:06:02;;;;;;;8.68;3.75;;;;;;;;;;6202954;28;20543;-60
2023/01/15 14:09:04;;;;;;;7.35;3.53;;;;;;;;;;6198387;28;20864;-59
2023/01/15 14:12:10;;;;;;;11.30;4.85;;;;;;;;;;6201524;28;20058;-58
2023/01/15 14:15:31;;;;;;;8.70;3.70;;;;;;;;;;6199550;28;20049;-60
2023/01/15 14:18:47;;;;;;;9.68;4.72;;;;;;;;;;6200963;28;20088;-59
2023/01/15 14:22:04;;;;;;;12.70;6.68;;;;;;;;;;6199591;28;20069;-60
2023/01/15 14:25:22;;;;;;;10.52;3.95;;;;;;;;;;6199319;28;20058;-59
2023/01/15 14:28:53;;;;;;;11.43;5.97;;;;;;;;;;6202608;28;20064;-58
2023/01/15 14:32:10;;;;;;;8.90;3.78;;;;;;;;;;6199805;28;20445;-61
2023/01/15 14:35:18;;;;;;;9.93;4.28;;;;;;;;;;6199626;28;20132;-54
2023/01/15 14:38:23;;;;;;;13.93;5.90;;;;;;;;;;6202219;28;20058;-59
2023/01/15 14:41:27;;;;;;;14.18;5.70;;;;;;;;;;6197909;28;20064;-59
2023/01/15 14:44:32;;;;;;;40.55;13.13;;;;;;;;;;6200280;28;20061;-59
2023/01/15 14:47:43;;;;;;;12.32;5.05;;;;;;;;;;6199214;28;20053;-60
2023/01/15 14:50:44;;;;;;;24.60;11.95;;;;;;;;;;6198954;28;20108;-58
2023/01/15 14:53:51;;;;;;;12.60;5.75;;;;;;;;;;6202149;28;20058;-57
2023/01/15 14:56:56;;;;;;;10.90;5.10;;;;;;;;;;6201228;28;20593;-60
2023/01/15 15:00:02;;;;;;;21.92;9.30;;;;;;;;;;6196469;28;20494;-57
2023/01/15 15:03:15;;;;;;;17.00;6.25;;;;;;;;;;6199188;28;20102;-56
2023/01/15 15:06:16;;;;;;;23.05;8.30;;;;;;;;;;6201127;28;20058;-57
2023/01/15 15:09:27;;;;;;;45.40;11.90;;;;;;;;;;6196897;28;20058;-60
2023/01/15 15:12:40;;;;;;;21.08;8.15;;;;;;;;;;6196319;28;20042;-59
2023/01/15 15:15:57;;;;;;;20.92;7.03;;;;;;;;;;6198604;28;20670;-60
2023/01/15 15:19:04;;;;;;;16.30;6.28;;;;;;;;;;6197121;28;20603;-59
2023/01/15 15:22:07;;;;;;;13.32;5.57;;;;;;;;;;6199360;28;20050;-59
2023/01/15 15:25:11;;;;;;;15.43;6.13;;;;;;;;;;6198739;28;20049;-60
2023/01/15 15:28:11;;;;;;;7.28;3.95;;;;;;;;;;6197603;28;20058;-67
2023/01/15 15:31:13;;;;;;;11.35;4.35;;;;;;;;;;6194801;28;20054;-56
2023/01/15 15:34:24;;;;;;;17.92;7.30;;;;;;;;;;6203108;28;20160;-59
2023/01/15 15:37:27;;;;;;;20.83;7.43;;;;;;;;;;6207953;28;20060;-59
2023/01/15 15:40:32;;;;;;;18.10;6.75;;;;;;;;;;6204139;28;20049;-60
2023/01/15 15:50:39;;;;;;;9.98;5.25;;;;;;;;;;6201373;28;20058;-57
2023/01/15 15:53:40;;;;;;;11.32;6.18;;;;;;;;;;6206447;28;20112;-58
2023/01/15 15:56:46;;;;;;;9.75;4.90;;;;;;;;;;6205430;28;20160;-58
2023/01/15 15:59:50;;;;;;;11.02;5.05;;;;;;;;;;6204740;28;20060;-57
2023/01/15 16:02:51;;;;;;;14.63;6.38;;;;;;;;;;6206878;28;20484;-58
2023/01/15 16:06:00;;;;;;;40.33;21.40;;;;;;;;;;6207220;28;20054;-57
2023/01/15 16:09:03;;;;;;;16.45;9.18;;;;;;;;;;6204736;28;20064;-59
2023/01/15 16:12:06;;;;;;;20.70;10.57;;;;;;;;;;6205926;28;20050;-57
2023/01/15 16:15:15;;;;;;;12.23;6.60;;;;;;;;;;6205111;28;20046;-57
2023/01/15 16:18:22;;;;;;;9.48;4.95;;;;;;;;;;6205246;28;20050;-60
2023/01/15 16:21:31;;;;;;;9.52;4.45;;;;;;;;;;6202263;28;20599;-60
2023/01/15 16:24:31;;;;;;;11.48;5.28;;;;;;;;;;6203129;28;20390;-58
2023/01/15 16:27:34;;;;;;;8.35;3.92;;;;;;;;;;6204686;28;20062;-59
2023/01/15 16:30:35;;;;;;;9.98;4.65;;;;;;;;;;6203252;28;20050;-56
2023/01/15 16:33:37;;;;;;;10.02;4.20;;;;;;;;;;6204926;28;20169;-57
2023/01/15 16:36:40;;;;;;;6.53;3.53;;;;;;;;;;6204724;28;20046;-61
2023/01/15 16:39:45;;;;;;;6.97;3.55;;;;;;;;;;6203175;28;20073;-57
2023/01/15 16:42:46;;;;;;;6.95;3.58;;;;;;;;;;6205761;28;20045;-59
2023/01/15 16:46:02;;;;;;;8.70;4.15;;;;;;;;;;6203991;28;20053;-56
2023/01/15 16:49:20;;;;;;;8.00;4.13;;;;;;;;;;6200703;28;20048;-57
2023/01/15 16:52:42;;;;;;;9.43;4.57;;;;;;;;;;6206115;28;20058;-57
2023/01/15 16:55:45;;;;;;;9.02;4.43;;;;;;;;;;6207017;28;20080;-59
2023/01/15 16:58:45;;;;;;;11.30;4.47;;;;;;;;;;6204528;28;20646;-57
2023/01/15 17:01:47;;;;;;;8.43;4.40;;;;;;;;;;6204194;28;20046;-58
2023/01/15 17:04:50;;;;;;;12.30;5.63;;;;;;;;;;6189087;28;20092;-55
2023/01/15 17:07:53;;;;;;;11.80;5.40;;;;;;;;;;6206048;28;20489;-73
2023/01/15 17:10:59;;;;;;;19.15;8.43;;;;;;;;;;6202757;28;20064;-68
2023/01/15 17:14:17;;;;;;;23.85;9.65;;;;;;;;;;6211287;28;20061;-61
2023/01/15 17:17:23;;;;;;;23.13;10.32;;;;;;;;;;6210537;28;20496;-61
2023/01/15 17:20:32;;;;;;;25.50;10.73;;;;;;;;;;6207958;28;20049;-58
2023/01/15 17:23:38;;;;;;;27.38;11.45;;;;;;;;;;6211098;28;20061;-59
2023/01/15 17:26:38;;;;;;;26.85;11.23;;;;;;;;;;6209549;28;20790;-57
2023/01/15 17:29:39;;;;;;;20.88;8.93;;;;;;;;;;6206863;28;20058;-58
2023/01/15 17:32:40;;;;;;;20.08;10.13;;;;;;;;;;6208932;28;20084;-59
2023/01/15 17:35:41;;;;;;;20.73;9.90;;;;;;;;;;6210902;28;20057;-59
2023/01/15 17:38:42;;;;;;;16.15;7.93;;;;;;;;;;6209493;28;20062;-61
2023/01/15 17:41:42;;;;;;;16.90;8.18;;;;;;;;;;6208926;28;20049;-55
2023/01/15 17:44:43;;;;;;;15.13;7.32;;;;;;;;;;6192572;28;20413;-56
2023/01/15 17:47:45;;;;;;;22.15;11.95;;;;;;;;;;6210188;28;20060;-60
2023/01/15 17:50:47;;;;;;;19.88;10.32;;;;;;;;;;6205484;28;20050;-58
2023/01/15 17:53:50;;;;;;;25.10;12.30;;;;;;;;;;6210673;28;20049;-58
2023/01/15 18:07:08;;;;;;;10.88;5.82;;;;;;;;;;6210333;28;20064;-59
2023/01/15 18:10:17;;;;;;;10.30;5.70;;;;;;;;;;6207096;28;20065;-58
2023/01/15 18:13:18;;;;;;;14.82;6.55;;;;;;;;;;6209537;28;20843;-58
2023/01/15 18:16:18;;;;;;;13.30;6.55;;;;;;;;;;6209365;28;20050;-60
2023/01/15 18:19:19;;;;;;;15.02;6.20;;;;;;;;;;6206947;28;20433;-61
2023/01/15 18:22:21;;;;;;;14.25;6.20;;;;;;;;;;6208442;28;20057;-60
2023/01/15 18:25:21;;;;;;;29.52;13.40;;;;;;;;;;6205066;28;20046;-60
2023/01/15 18:28:22;;;;;;;40.67;18.83;;;;;;;;;;6209231;28;20058;-61
2023/01/15 18:31:23;;;;;;;16.23;8.20;;;;;;;;;;6187849;28;20049;-60
2023/01/15 18:34:23;;;;;;;9.90;5.07;;;;;;;;;;6208957;28;20050;-55
2023/01/15 18:37:24;;;;;;;13.05;7.07;;;;;;;;;;6208616;28;20057;-59
2023/01/15 18:40:33;;;;;;;10.30;6.10;;;;;;;;;;6204888;28;20054;-58
2023/01/15 18:46:55;;;;;;;10.38;5.70;;;;;;;;;;6206939;28;20253;-56
2023/01/15 18:49:57;;;;;;;10.98;5.63;;;;;;;;;;6205939;28;20548;-57
2023/01/15 18:52:57;;;;;;;10.93;5.10;;;;;;;;;;6207455;28;20066;-58
2023/01/15 18:56:05;;;;;;;9.88;5.20;;;;;;;;;;6206840;28;20056;-55
2023/01/15 18:59:11;;;;;;;10.60;5.43;;;;;;;;;;6200504;28;20050;-64
2023/01/15 19:02:13;;;;;;;10.68;4.82;;;;;;;;;;6212728;28;20052;-60
2023/01/15 19:05:16;;;;;;;12.33;5.90;;;;;;;;;;6217717;28;20073;-59
2023/01/15 19:08:16;;;;;;;10.77;5.75;;;;;;;;;;6211240;28;20508;-58
2023/01/15 19:11:19;;;;;;;16.55;7.72;;;;;;;;;;6197272;28;20104;-54
2023/01/15 19:20:58;;;;;;;29.52;15.00;;;;;;;;;;6209990;28;20049;-60
2023/01/15 19:24:02;;;;;;;18.77;8.15;;;;;;;;;;6211068;28;20164;-58
2023/01/15 19:27:03;;;;;;;19.15;8.38;;;;;;;;;;6208964;28;20165;-58
2023/01/15 19:30:06;;;;;;;29.48;10.07;;;;;;;;;;6206300;28;20476;-60
2023/01/15 19:33:08;;;;;;;19.02;9.50;;;;;;;;;;6210681;28;20492;-59
2023/01/15 19:36:09;;;;;;;;;;;;;;;;;;6210973;28;20847;-59
2023/01/15 19:39:10;;;;;;;28.42;17.23;;;;;;;;;;6192320;28;19930;-60
2023/01/15 19:52:35;;;;;;;32.33;10.65;;;;;;;;;;6116890;29;20062;-60
2023/01/15 19:55:38;;;;;;;21.40;8.25;;;;;;;;;;6114378;29;20146;-60
2023/01/15 19:58:39;;;;;;;13.00;5.95;;;;;;;;;;6184753;28;20508;-58